WAT4275 CYVP-CYQB
Flight info
| Callsign | WAT4275 |
|---|---|
| Flight time | N/A |
| Altitude | 38000 |
| Route | YWK J561 YBC DCT MIVAX DCT SIMTO SIMTO4 |
| Aircraft | A319/M-SDE3FGHIRWY/LB1 |
Departure
| Time | 2026-04-19 11:26 |
|---|---|
| Airport | Kuujjuaq Airport (CYVP) |
Arrival
| Time | N/A |
|---|---|
| Airport | Quebec Jean Lesage International Airport (CYQB) |
| Time | Latitude | Longitude | Altitude | Speed | Heading |
|---|---|---|---|---|---|
| 2026-04-19 11:20 | 58.09915 | -68.42107 | 123 ft | 0 kts | 291° |
| 2026-04-19 11:22 | 58.09895 | -68.42141 | 122 ft | 8 kts | 179° |
| 2026-04-19 11:22 | 58.09864 | -68.42038 | 116 ft | 11 kts | 107° |
| 2026-04-19 11:23 | 58.09808 | -68.41881 | 99 ft | 17 kts | 132° |
| 2026-04-19 11:23 | 58.09723 | -68.41718 | 94 ft | 16 kts | 159° |
| 2026-04-19 11:23 | 58.09657 | -68.41749 | 91 ft | 0 kts | 223° |
| 2026-04-19 11:25 | 58.09657 | -68.41750 | 90 ft | 1 kts | 223° |
| 2026-04-19 11:25 | 58.09428 | -68.42142 | 95 ft | 88 kts | 222° |
| 2026-04-19 11:26 | 58.08776 | -68.43254 | 322 ft | 142 kts | 224° |
| 2026-04-19 11:26 | 58.08002 | -68.44582 | 1322 ft | 161 kts | 225° |
| 2026-04-19 11:26 | 58.07117 | -68.46133 | 2249 ft | 187 kts | 225° |
| 2026-04-19 11:26 | 58.06080 | -68.47816 | 3317 ft | 207 kts | 212° |
| 2026-04-19 11:27 | 58.04631 | -68.48458 | 4459 ft | 227 kts | 183° |
| 2026-04-19 11:27 | 58.03002 | -68.48212 | 5636 ft | 242 kts | 177° |
| 2026-04-19 11:27 | 58.01319 | -68.47735 | 6900 ft | 246 kts | 175° |
| 2026-04-19 11:27 | 57.99624 | -68.47161 | 8227 ft | 249 kts | 175° |
| 2026-04-19 11:28 | 57.97918 | -68.46532 | 9511 ft | 251 kts | 175° |
| 2026-04-19 11:28 | 57.96146 | -68.45874 | 10327 ft | 270 kts | 174° |
| 2026-04-19 11:28 | 57.94234 | -68.45177 | 11016 ft | 289 kts | 174° |
| 2026-04-19 11:28 | 57.92900 | -68.44691 | 11494 ft | 300 kts | 174° |
| 2026-04-19 11:29 | 57.90790 | -68.43922 | 12253 ft | 315 kts | 173° |
| 2026-04-19 11:29 | 57.88592 | -68.43118 | 13037 ft | 327 kts | 173° |
| 2026-04-19 11:29 | 57.85594 | -68.42005 | 14190 ft | 333 kts | 173° |
| 2026-04-19 11:29 | 57.84053 | -68.41422 | 14801 ft | 335 kts | 174° |
| 2026-04-19 11:30 | 57.81756 | -68.40553 | 15719 ft | 338 kts | 174° |
| 2026-04-19 11:30 | 57.79469 | -68.39690 | 16588 ft | 341 kts | 175° |
| 2026-04-19 11:30 | 57.77129 | -68.38814 | 17456 ft | 344 kts | 175° |
| 2026-04-19 11:30 | 57.74763 | -68.37936 | 18192 ft | 348 kts | 176° |
| 2026-04-19 11:31 | 57.72377 | -68.37055 | 18888 ft | 351 kts | 176° |
| 2026-04-19 11:31 | 57.69967 | -68.36170 | 19575 ft | 355 kts | 177° |
| 2026-04-19 11:31 | 57.67531 | -68.35282 | 20269 ft | 358 kts | 178° |
| 2026-04-19 11:31 | 57.65073 | -68.34390 | 20947 ft | 362 kts | 178° |
| 2026-04-19 11:32 | 57.62589 | -68.33493 | 21615 ft | 365 kts | 178° |
| 2026-04-19 11:32 | 57.60082 | -68.32590 | 22259 ft | 369 kts | 179° |
| 2026-04-19 11:32 | 57.57538 | -68.31678 | 22892 ft | 372 kts | 179° |
| 2026-04-19 11:32 | 57.55004 | -68.30776 | 23427 ft | 375 kts | 179° |
| 2026-04-19 11:33 | 57.52440 | -68.29871 | 23997 ft | 376 kts | 179° |
| 2026-04-19 11:33 | 57.49857 | -68.28962 | 24564 ft | 378 kts | 179° |
| 2026-04-19 11:33 | 57.47265 | -68.28051 | 25112 ft | 380 kts | 179° |
| 2026-04-19 11:33 | 57.44658 | -68.27136 | 25660 ft | 382 kts | 179° |
| 2026-04-19 11:34 | 57.42040 | -68.26215 | 26279 ft | 381 kts | 179° |
| 2026-04-19 11:34 | 57.39445 | -68.25297 | 27041 ft | 377 kts | 179° |
| 2026-04-19 11:34 | 57.36880 | -68.24387 | 27831 ft | 374 kts | 179° |
| 2026-04-19 11:34 | 57.34340 | -68.23487 | 28613 ft | 370 kts | 179° |
| 2026-04-19 11:35 | 57.31828 | -68.22599 | 29387 ft | 366 kts | 179° |
| 2026-04-19 11:35 | 57.29332 | -68.21716 | 30057 ft | 362 kts | 179° |
| 2026-04-19 11:35 | 57.26873 | -68.20844 | 30740 ft | 358 kts | 179° |
| 2026-04-19 11:35 | 57.24440 | -68.19980 | 31414 ft | 353 kts | 180° |
| 2026-04-19 11:36 | 57.22038 | -68.19130 | 32100 ft | 349 kts | 180° |
| 2026-04-19 11:36 | 57.19697 | -68.18304 | 32779 ft | 345 kts | 180° |
| 2026-04-19 11:36 | 57.17349 | -68.17479 | 33461 ft | 341 kts | 181° |
| 2026-04-19 11:36 | 57.15014 | -68.16672 | 33842 ft | 343 kts | 181° |
| 2026-04-19 11:37 | 57.12654 | -68.15873 | 34131 ft | 346 kts | 181° |
| 2026-04-19 11:37 | 57.10271 | -68.15072 | 34427 ft | 350 kts | 180° |
| 2026-04-19 11:37 | 57.07858 | -68.14258 | 34726 ft | 353 kts | 180° |
| 2026-04-19 11:37 | 57.05460 | -68.13447 | 35024 ft | 357 kts | 180° |
| 2026-04-19 11:38 | 57.03004 | -68.12612 | 35323 ft | 360 kts | 180° |
| 2026-04-19 11:38 | 57.00529 | -68.11769 | 35618 ft | 363 kts | 180° |
| 2026-04-19 11:38 | 56.98034 | -68.10918 | 35912 ft | 366 kts | 179° |
| 2026-04-19 11:38 | 56.95520 | -68.10060 | 36212 ft | 369 kts | 179° |
| 2026-04-19 11:39 | 56.92983 | -68.09192 | 36509 ft | 372 kts | 179° |
| 2026-04-19 11:39 | 56.90427 | -68.08317 | 36815 ft | 375 kts | 179° |
| 2026-04-19 11:39 | 56.87850 | -68.07435 | 37122 ft | 377 kts | 179° |
| 2026-04-19 11:39 | 56.85281 | -68.06548 | 37294 ft | 373 kts | 179° |
| 2026-04-19 11:40 | 56.82727 | -68.05666 | 37368 ft | 376 kts | 179° |
| 2026-04-19 11:40 | 56.77528 | -68.03888 | 37403 ft | 382 kts | 179° |
| 2026-04-19 11:41 | 56.72355 | -68.02111 | 37404 ft | 378 kts | 179° |
| 2026-04-19 11:41 | 56.67199 | -68.00337 | 37409 ft | 377 kts | 179° |
| 2026-04-19 11:42 | 56.62031 | -67.98578 | 37410 ft | 378 kts | 179° |
| 2026-04-19 11:42 | 56.59438 | -67.97669 | 36705 ft | 383 kts | 169° |
| 2026-04-19 11:42 | 56.56781 | -67.96792 | 36721 ft | 394 kts | 170° |